Terminal Aerodrome Forecast
Issued by NWS Upton, NY

Home | Current Version | Previous Version | Text Only | Print | Product List | Glossary On
Versions: 1 2 3 4 5 6 7 8 9 10 11 12 13 14 15 16 17 18 19 20 21 22 23 24 25 26 27 28 29 30 31 32 33 34 35
000
FTUS41 KOKX 300830 AAA
TAFEWR
TAF AMD
KEWR 300830Z 3009/3112 19005KT P6SM BKN250
      TEMPO 3010/3012 BKN005
     FM301300 19012KT P6SM BKN250
     FM301700 19013G21KT P6SM SCT040 BKN250
     FM310200 20009KT P6SM SCT040 SCT250
     FM310900 20006KT P6SM BKN040=

USA.gov is the U.S. government's official web portal to all federal, state and local government web resources and services.